sensor_id;sensor_type;location;lat;lon;timestamp;pressure;altitude;pressure_sealevel;temperature
72054;BMP280;59918;51.280;7.950;2023-03-12T00:00:16;97570.75;;;0.57
72054;BMP280;59918;51.280;7.950;2023-03-12T00:02:42;97571.22;;;0.61
72054;BMP280;59918;51.280;7.950;2023-03-12T00:05:07;97569.31;;;0.63
72054;BMP280;59918;51.280;7.950;2023-03-12T00:07:32;97572.69;;;0.63
72054;BMP280;59918;51.280;7.950;2023-03-12T00:09:57;97567.47;;;0.65
72054;BMP280;59918;51.280;7.950;2023-03-12T00:12:23;97561.47;;;0.66
72054;BMP280;59918;51.280;7.950;2023-03-12T00:14:48;97557.03;;;0.68
72054;BMP280;59918;51.280;7.950;2023-03-12T00:17:13;97553.72;;;0.67
72054;BMP280;59918;51.280;7.950;2023-03-12T00:19:38;97563.84;;;0.67
72054;BMP280;59918;51.280;7.950;2023-03-12T00:22:03;97556.25;;;0.67
72054;BMP280;59918;51.280;7.950;2023-03-12T00:24:28;97567.16;;;0.68
72054;BMP280;59918;51.280;7.950;2023-03-12T00:26:53;97557.03;;;0.68
72054;BMP280;59918;51.280;7.950;2023-03-12T00:29:19;97557.03;;;0.68
72054;BMP280;59918;51.280;7.950;2023-03-12T00:31:44;97557.03;;;0.68
72054;BMP280;59918;51.280;7.950;2023-03-12T00:34:09;97561.47;;;0.66
72054;BMP280;59918;51.280;7.950;2023-03-12T00:36:34;97559.22;;;0.63
72054;BMP280;59918;51.280;7.950;2023-03-12T00:38:59;97559.22;;;0.63
72054;BMP280;59918;51.280;7.950;2023-03-12T00:41:25;97544.19;;;0.61
72054;BMP280;59918;51.280;7.950;2023-03-12T00:43:50;97539.28;;;0.60
72054;BMP280;59918;51.280;7.950;2023-03-12T00:46:16;97540.84;;;0.61
72054;BMP280;59918;51.280;7.950;2023-03-12T00:48:41;97543.38;;;0.61
72054;BMP280;59918;51.280;7.950;2023-03-12T00:51:07;97535.78;;;0.61
72054;BMP280;59918;51.280;7.950;2023-03-12T00:53:32;97544.03;;;0.63
72054;BMP280;59918;51.280;7.950;2023-03-12T00:55:57;97535.50;;;0.64
72054;BMP280;59918;51.280;7.950;2023-03-12T00:58:22;97528.69;;;0.64
72054;BMP280;59918;51.280;7.950;2023-03-12T01:00:47;97538.69;;;0.66
72054;BMP280;59918;51.280;7.950;2023-03-12T01:03:12;97530.16;;;0.67
72054;BMP280;59918;51.280;7.950;2023-03-12T01:05:38;97529.19;;;0.68
72054;BMP280;59918;51.280;7.950;2023-03-12T01:08:03;97522.41;;;0.68
72054;BMP280;59918;51.280;7.950;2023-03-12T01:10:29;97517.34;;;0.68
72054;BMP280;59918;51.280;7.950;2023-03-12T01:12:54;97521.47;;;0.69
72054;BMP280;59918;51.280;7.950;2023-03-12T01:15:19;97518.16;;;0.69
72054;BMP280;59918;51.280;7.950;2023-03-12T01:17:44;97517.97;;;0.70
72054;BMP280;59918;51.280;7.950;2023-03-12T01:20:10;97510.56;;;0.69
72054;BMP280;59918;51.280;7.950;2023-03-12T01:22:35;97508.03;;;0.69
72054;BMP280;59918;51.280;7.950;2023-03-12T01:25:00;97519.88;;;0.68
72054;BMP280;59918;51.280;7.950;2023-03-12T01:27:26;97508.03;;;0.69
72054;BMP280;59918;51.280;7.950;2023-03-12T01:29:51;97508.81;;;0.69
72054;BMP280;59918;51.280;7.950;2023-03-12T01:32:16;97507.84;;;0.70
72054;BMP280;59918;51.280;7.950;2023-03-12T01:34:41;97512.91;;;0.70
72054;BMP280;59918;51.280;7.950;2023-03-12T01:37:07;97511.97;;;0.71
72054;BMP280;59918;51.280;7.950;2023-03-12T01:39:32;97503.16;;;0.75
72054;BMP280;59918;51.280;7.950;2023-03-12T01:41:57;97504.56;;;0.77
72054;BMP280;59918;51.280;7.950;2023-03-12T01:44:22;97512.97;;;0.78
72054;BMP280;59918;51.280;7.950;2023-03-12T01:46:47;97512.66;;;0.81
72054;BMP280;59918;51.280;7.950;2023-03-12T01:49:13;97506.50;;;0.83
72054;BMP280;59918;51.280;7.950;2023-03-12T01:51:47;97515.53;;;0.86
72054;BMP280;59918;51.280;7.950;2023-03-12T01:54:24;97507.00;;;0.87
72054;BMP280;59918;51.280;7.950;2023-03-12T01:56:53;97503.38;;;0.89
72054;BMP280;59918;51.280;7.950;2023-03-12T01:59:24;97491.66;;;0.88
72054;BMP280;59918;51.280;7.950;2023-03-12T02:01:50;97499.25;;;0.88
72054;BMP280;59918;51.280;7.950;2023-03-12T02:04:17;97490.72;;;0.89
72054;BMP280;59918;51.280;7.950;2023-03-12T02:06:44;97475.22;;;0.92
72054;BMP280;59918;51.280;7.950;2023-03-12T02:09:10;97480.28;;;0.92
72054;BMP280;59918;51.280;7.950;2023-03-12T02:11:36;97486.94;;;0.93
72054;BMP280;59918;51.280;7.950;2023-03-12T02:14:01;97479.34;;;0.93
72054;BMP280;59918;51.280;7.950;2023-03-12T02:16:26;97476.81;;;0.93
72054;BMP280;59918;51.280;7.950;2023-03-12T02:18:52;97467.47;;;0.94
72054;BMP280;59918;51.280;7.950;2023-03-12T02:21:22;97466.38;;;0.96
72054;BMP280;59918;51.280;7.950;2023-03-12T02:26:16;97459.75;;;1.03
72054;BMP280;59918;51.280;7.950;2023-03-12T02:28:42;97462.00;;;1.06
72054;BMP280;59918;51.280;7.950;2023-03-12T02:31:10;97467.38;;;1.11
72054;BMP280;59918;51.280;7.950;2023-03-12T02:33:36;97459.47;;;1.14
72054;BMP280;59918;51.280;7.950;2023-03-12T02:36:01;97457.41;;;1.17
72054;BMP280;59918;51.280;7.950;2023-03-12T02:40:59;97443.66;;;1.20
72054;BMP280;59918;51.280;7.950;2023-03-12T02:43:25;97451.28;;;1.20
72054;BMP280;59918;51.280;7.950;2023-03-12T02:45:51;97449.66;;;1.19
72054;BMP280;59918;51.280;7.950;2023-03-12T02:48:16;97447.13;;;1.19
72054;BMP280;59918;51.280;7.950;2023-03-12T02:50:41;97448.88;;;1.18
72054;BMP280;59918;51.280;7.950;2023-03-12T02:53:06;97445.56;;;1.18
72054;BMP280;59918;51.280;7.950;2023-03-12T02:55:31;97442.06;;;1.19
72054;BMP280;59918;51.280;7.950;2023-03-12T02:57:56;97442.72;;;1.21
72054;BMP280;59918;51.280;7.950;2023-03-12T03:00:21;97434.00;;;1.23
72054;BMP280;59918;51.280;7.950;2023-03-12T03:02:47;97442.22;;;1.25
72054;BMP280;59918;51.280;7.950;2023-03-12T03:05:12;97441.28;;;1.26
72054;BMP280;59918;51.280;7.950;2023-03-12T03:07:37;97449.69;;;1.27
72054;BMP280;59918;51.280;7.950;2023-03-12T03:10:03;97449.38;;;1.30
72054;BMP280;59918;51.280;7.950;2023-03-12T03:12:29;97448.28;;;1.32
72054;BMP280;59918;51.280;7.950;2023-03-12T03:14:54;97439.75;;;1.33
72054;BMP280;59918;51.280;7.950;2023-03-12T03:17:19;97432.78;;;1.35
72054;BMP280;59918;51.280;7.950;2023-03-12T03:19:44;97435.31;;;1.35
72054;BMP280;59918;51.280;7.950;2023-03-12T03:22:09;97440.22;;;1.37
72054;BMP280;59918;51.280;7.950;2023-03-12T03:24:34;97436.75;;;1.38
72054;BMP280;59918;51.280;7.950;2023-03-12T03:26:59;97444.34;;;1.38
72054;BMP280;59918;51.280;7.950;2023-03-12T03:29:25;97445.28;;;1.37
72054;BMP280;59918;51.280;7.950;2023-03-12T03:31:50;97446.25;;;1.36
72054;BMP280;59918;51.280;7.950;2023-03-12T03:34:15;97450.66;;;1.34
72054;BMP280;59918;51.280;7.950;2023-03-12T03:36:40;97440.53;;;1.34
72054;BMP280;59918;51.280;7.950;2023-03-12T03:39:05;97438.00;;;1.34
72054;BMP280;59918;51.280;7.950;2023-03-12T03:41:30;97431.19;;;1.34
72054;BMP280;59918;51.280;7.950;2023-03-12T03:43:56;97438.63;;;1.36
72054;BMP280;59918;51.280;7.950;2023-03-12T03:46:21;97425.34;;;1.34
72054;BMP280;59918;51.280;7.950;2023-03-12T03:48:46;97423.72;;;1.33
72054;BMP280;59918;51.280;7.950;2023-03-12T03:51:11;97416.47;;;1.30
72054;BMP280;59918;51.280;7.950;2023-03-12T03:53:37;97419.28;;;1.27
72054;BMP280;59918;51.280;7.950;2023-03-12T03:56:05;97427.84;;;1.26
72054;BMP280;59918;51.280;7.950;2023-03-12T03:58:31;97429.41;;;1.27
72054;BMP280;59918;51.280;7.950;2023-03-12T04:00:56;97423.56;;;1.26
72054;BMP280;59918;51.280;7.950;2023-03-12T04:03:21;97425.16;;;1.27
72054;BMP280;59918;51.280;7.950;2023-03-12T04:05:51;97427.53;;;1.29
72054;BMP280;59918;51.280;7.950;2023-03-12T04:08:17;97425.34;;;1.34
72054;BMP280;59918;51.280;7.950;2023-03-12T04:10:42;97420.91;;;1.36
72054;BMP280;59918;51.280;7.950;2023-03-12T04:13:07;97418.84;;;1.39
72054;BMP280;59918;51.280;7.950;2023-03-12T04:15:32;97414.25;;;1.43
72054;BMP280;59918;51.280;7.950;2023-03-12T04:17:57;97402.22;;;1.44
72054;BMP280;59918;51.280;7.950;2023-03-12T04:20:22;97411.25;;;1.47
72054;BMP280;59918;51.280;7.950;2023-03-12T04:22:48;97403.81;;;1.45
72054;BMP280;59918;51.280;7.950;2023-03-12T04:25:13;97407.28;;;1.44
72054;BMP280;59918;51.280;7.950;2023-03-12T04:27:38;97404.91;;;1.43
72054;BMP280;59918;51.280;7.950;2023-03-12T04:30:03;97411.06;;;1.41
72054;BMP280;59918;51.280;7.950;2023-03-12T04:32:28;97401.13;;;1.39
72054;BMP280;59918;51.280;7.950;2023-03-12T04:34:54;97401.91;;;1.40
72054;BMP280;59918;51.280;7.950;2023-03-12T04:37:19;97397.78;;;1.39
72054;BMP280;59918;51.280;7.950;2023-03-12T04:39:44;97403.66;;;1.39
72054;BMP280;59918;51.280;7.950;2023-03-12T04:42:09;97397.78;;;1.39
72054;BMP280;59918;51.280;7.950;2023-03-12T04:44:35;97381.78;;;1.38
72054;BMP280;59918;51.280;7.950;2023-03-12T04:47:00;97379.09;;;1.40
72054;BMP280;59918;51.280;7.950;2023-03-12T04:49:25;97378.31;;;1.39
72054;BMP280;59918;51.280;7.950;2023-03-12T04:51:51;97377.50;;;1.39
72054;BMP280;59918;51.280;7.950;2023-03-12T04:54:16;97374.03;;;1.40
72054;BMP280;59918;51.280;7.950;2023-03-12T04:56:41;97377.50;;;1.39
72054;BMP280;59918;51.280;7.950;2023-03-12T04:59:06;97383.06;;;1.42
72054;BMP280;59918;51.280;7.950;2023-03-12T05:01:33;97386.22;;;1.44
72054;BMP280;59918;51.280;7.950;2023-03-12T05:03:58;97384.66;;;1.43
72054;BMP280;59918;51.280;7.950;2023-03-12T05:06:24;97380.38;;;1.44
72054;BMP280;59918;51.280;7.950;2023-03-12T05:08:49;97371.34;;;1.41
72054;BMP280;59918;51.280;7.950;2023-03-12T05:11:14;97372.91;;;1.42
72054;BMP280;59918;51.280;7.950;2023-03-12T05:13:40;97374.53;;;1.43
72054;BMP280;59918;51.280;7.950;2023-03-12T05:16:05;97378.47;;;1.45
72054;BMP280;59918;51.280;7.950;2023-03-12T05:18:31;97368.19;;;1.47
72054;BMP280;59918;51.280;7.950;2023-03-12T05:20:57;97371.34;;;1.49
72054;BMP280;59918;51.280;7.950;2023-03-12T05:23:22;97361.03;;;1.50
72054;BMP280;59918;51.280;7.950;2023-03-12T05:25:47;97359.31;;;1.51
72054;BMP280;59918;51.280;7.950;2023-03-12T05:28:12;97360.75;;;1.53
72054;BMP280;59918;51.280;7.950;2023-03-12T05:30:38;97347.09;;;1.54
72054;BMP280;59918;51.280;7.950;2023-03-12T05:33:03;97352.16;;;1.54
72054;BMP280;59918;51.280;7.950;2023-03-12T05:35:28;97351.38;;;1.54
72054;BMP280;59918;51.280;7.950;2023-03-12T05:37:56;97351.53;;;1.52
72054;BMP280;59918;51.280;7.950;2023-03-12T05:40:21;97352.50;;;1.51
72054;BMP280;59918;51.280;7.950;2023-03-12T05:42:46;97356.59;;;1.52
72054;BMP280;59918;51.280;7.950;2023-03-12T05:45:11;97352.50;;;1.51
72054;BMP280;59918;51.280;7.950;2023-03-12T05:47:36;97356.78;;;1.51
72054;BMP280;59918;51.280;7.950;2023-03-12T05:50:01;97345.19;;;1.48
72054;BMP280;59918;51.280;7.950;2023-03-12T05:52:26;97343.00;;;1.45
72054;BMP280;59918;51.280;7.950;2023-03-12T05:54:52;97337.16;;;1.45
72054;BMP280;59918;51.280;7.950;2023-03-12T05:57:17;97332.22;;;1.44
72054;BMP280;59918;51.280;7.950;2023-03-12T05:59:42;97318.59;;;1.44
72054;BMP280;59918;51.280;7.950;2023-03-12T06:02:07;97312.59;;;1.45
72054;BMP280;59918;51.280;7.950;2023-03-12T06:04:32;97318.28;;;1.47
72054;BMP280;59918;51.280;7.950;2023-03-12T06:06:58;97322.09;;;1.51
72054;BMP280;59918;51.280;7.950;2023-03-12T06:09:23;97315.91;;;1.54
72054;BMP280;59918;51.280;7.950;2023-03-12T06:11:48;97312.88;;;1.58
72054;BMP280;59918;51.280;7.950;2023-03-12T06:14:13;97302.44;;;1.61
72054;BMP280;59918;51.280;7.950;2023-03-12T06:16:38;97296.72;;;1.67
72054;BMP280;59918;51.280;7.950;2023-03-12T06:19:03;97286.88;;;1.72
72054;BMP280;59918;51.280;7.950;2023-03-12T06:21:30;97287.06;;;1.79
72054;BMP280;59918;51.280;7.950;2023-03-12T06:23:55;97276.41;;;1.83
72054;BMP280;59918;51.280;7.950;2023-03-12T06:26:21;97271.47;;;1.89
72054;BMP280;59918;51.280;7.950;2023-03-12T06:28:47;97264.34;;;1.93
72054;BMP280;59918;51.280;7.950;2023-03-12T06:31:12;97266.22;;;1.99
72054;BMP280;59918;51.280;7.950;2023-03-12T06:33:37;97270.81;;;2.03
72054;BMP280;59918;51.280;7.950;2023-03-12T06:36:03;97270.78;;;2.11
72054;BMP280;59918;51.280;7.950;2023-03-12T06:38:29;97257.63;;;2.16
72054;BMP280;59918;51.280;7.950;2023-03-12T06:40:55;97256.97;;;2.21
72054;BMP280;59918;51.280;7.950;2023-03-12T06:43:20;97248.38;;;2.22
72054;BMP280;59918;51.280;7.950;2023-03-12T06:45:46;97249.50;;;2.20
72054;BMP280;59918;51.280;7.950;2023-03-12T06:48:11;97249.66;;;2.18
72054;BMP280;59918;51.280;7.950;2023-03-12T06:50:36;97240.91;;;2.21
72054;BMP280;59918;51.280;7.950;2023-03-12T06:53:01;97243.97;;;2.17
72054;BMP280;59918;51.280;7.950;2023-03-12T06:55:26;97237.94;;;2.17
72054;BMP280;59918;51.280;7.950;2023-03-12T06:57:51;97232.25;;;2.16
72054;BMP280;59918;51.280;7.950;2023-03-12T07:00:16;97231.44;;;2.15
72054;BMP280;59918;51.280;7.950;2023-03-12T07:02:42;97221.13;;;2.17
72054;BMP280;59918;51.280;7.950;2023-03-12T07:05:07;97235.84;;;2.21
72054;BMP280;59918;51.280;7.950;2023-03-12T07:07:32;97237.91;;;2.25
72054;BMP280;59918;51.280;7.950;2023-03-12T07:09:58;97249.59;;;2.34
72054;BMP280;59918;51.280;7.950;2023-03-12T07:12:23;97245.75;;;2.38
72054;BMP280;59918;51.280;7.950;2023-03-12T07:14:48;97249.06;;;2.39
72054;BMP280;59918;51.280;7.950;2023-03-12T07:17:13;97247.66;;;2.36
72054;BMP280;59918;51.280;7.950;2023-03-12T07:19:39;97236.28;;;2.32
72054;BMP280;59918;51.280;7.950;2023-03-12T07:22:04;97237.69;;;2.35
72054;BMP280;59918;51.280;7.950;2023-03-12T07:24:29;97244.47;;;2.42
72054;BMP280;59918;51.280;7.950;2023-03-12T07:26:54;97249.66;;;2.49
72054;BMP280;59918;51.280;7.950;2023-03-12T07:29:19;97247.00;;;2.42
72054;BMP280;59918;51.280;7.950;2023-03-12T07:31:44;97249.75;;;2.33
72054;BMP280;59918;51.280;7.950;2023-03-12T07:34:09;97241.69;;;2.29
72054;BMP280;59918;51.280;7.950;2023-03-12T07:36:34;97243.00;;;2.25
72054;BMP280;59918;51.280;7.950;2023-03-12T07:39:00;97239.31;;;2.28
72054;BMP280;59918;51.280;7.950;2023-03-12T07:41:25;97246.09;;;2.35
72054;BMP280;59918;51.280;7.950;2023-03-12T07:43:52;97232.25;;;2.46
72054;BMP280;59918;51.280;7.950;2023-03-12T07:46:17;97238.44;;;2.43
72054;BMP280;59918;51.280;7.950;2023-03-12T07:48:43;97234.66;;;2.39
72054;BMP280;59918;51.280;7.950;2023-03-12T07:51:08;97225.47;;;2.38
72054;BMP280;59918;51.280;7.950;2023-03-12T07:53:33;97212.78;;;2.38
72054;BMP280;59918;51.280;7.950;2023-03-12T07:55:58;97211.53;;;2.34
72054;BMP280;59918;51.280;7.950;2023-03-12T07:58:23;97212.31;;;2.35
72054;BMP280;59918;51.280;7.950;2023-03-12T08:00:48;97200.09;;;2.38
72054;BMP280;59918;51.280;7.950;2023-03-12T08:03:14;97209.41;;;2.46
72054;BMP280;59918;51.280;7.950;2023-03-12T08:05:39;97212.88;;;2.53
72054;BMP280;59918;51.280;7.950;2023-03-12T08:08:04;97202.19;;;2.57
72054;BMP280;59918;51.280;7.950;2023-03-12T08:10:29;97204.56;;;2.58
72054;BMP280;59918;51.280;7.950;2023-03-12T08:12:54;97217.06;;;2.60
72054;BMP280;59918;51.280;7.950;2023-03-12T08:15:19;97212.34;;;2.57
72054;BMP280;59918;51.280;7.950;2023-03-12T08:17:45;97204.91;;;2.55
72054;BMP280;59918;51.280;7.950;2023-03-12T08:20:10;97219.50;;;2.53
72054;BMP280;59918;51.280;7.950;2023-03-12T08:22:36;97214.59;;;2.52
72054;BMP280;59918;51.280;7.950;2023-03-12T08:25:01;97227.94;;;2.46
72054;BMP280;59918;51.280;7.950;2023-03-12T08:27:27;97202.94;;;2.43
72054;BMP280;59918;51.280;7.950;2023-03-12T08:29:52;97225.63;;;2.37
72054;BMP280;59918;51.280;7.950;2023-03-12T08:32:17;97199.00;;;2.33
72054;BMP280;59918;51.280;7.950;2023-03-12T08:34:42;97206.44;;;2.34
72054;BMP280;59918;51.280;7.950;2023-03-12T08:37:07;97228.66;;;2.32
72054;BMP280;59918;51.280;7.950;2023-03-12T08:39:32;97206.22;;;2.21
72054;BMP280;59918;51.280;7.950;2023-03-12T08:41:58;97229.88;;;2.14
72054;BMP280;59918;51.280;7.950;2023-03-12T08:44:23;97205.63;;;2.12
72054;BMP280;59918;51.280;7.950;2023-03-12T08:46:49;97217.47;;;2.19
72054;BMP280;59918;51.280;7.950;2023-03-12T08:49:15;97221.44;;;2.21
72054;BMP280;59918;51.280;7.950;2023-03-12T08:51:40;97222.56;;;2.11
72054;BMP280;59918;51.280;7.950;2023-03-12T08:54:05;97219.59;;;2.08
72054;BMP280;59918;51.280;7.950;2023-03-12T08:56:30;97225.78;;;2.05
72054;BMP280;59918;51.280;7.950;2023-03-12T08:58:59;97231.34;;;2.01
72054;BMP280;59918;51.280;7.950;2023-03-12T09:01:24;97218.50;;;2.02
72054;BMP280;59918;51.280;7.950;2023-03-12T09:03:49;97227.38;;;2.06
72054;BMP280;59918;51.280;7.950;2023-03-12T09:06:14;97225.78;;;2.05
72054;BMP280;59918;51.280;7.950;2023-03-12T09:08:40;97220.38;;;2.08
72054;BMP280;59918;51.280;7.950;2023-03-12T09:11:05;97232.88;;;2.17
72054;BMP280;59918;51.280;7.950;2023-03-12T09:13:30;97215.25;;;2.24
72054;BMP280;59918;51.280;7.950;2023-03-12T09:15:59;97224.38;;;2.33
72054;BMP280;59918;51.280;7.950;2023-03-12T09:18:24;97199.94;;;2.40
72054;BMP280;59918;51.280;7.950;2023-03-12T09:20:49;97209.25;;;2.47
72054;BMP280;59918;51.280;7.950;2023-03-12T09:23:14;97204.91;;;2.55
72054;BMP280;59918;51.280;7.950;2023-03-12T09:25:43;97210.44;;;2.59
72054;BMP280;59918;51.280;7.950;2023-03-12T09:28:08;97229.81;;;2.52
72054;BMP280;59918;51.280;7.950;2023-03-12T09:30:33;97210.19;;;2.46
72054;BMP280;59918;51.280;7.950;2023-03-12T09:32:59;97218.41;;;2.48
72054;BMP280;59918;51.280;7.950;2023-03-12T09:35:24;97216.34;;;2.52
72054;BMP280;59918;51.280;7.950;2023-03-12T09:37:49;97209.13;;;2.63
72054;BMP280;59918;51.280;7.950;2023-03-12T09:40:15;97200.06;;;2.68
72054;BMP280;59918;51.280;7.950;2023-03-12T09:45:26;97209.34;;;2.76
72054;BMP280;59918;51.280;7.950;2023-03-12T09:47:53;97210.16;;;2.76
72054;BMP280;59918;51.280;7.950;2023-03-12T09:52:45;97211.00;;;2.69
72054;BMP280;59918;51.280;7.950;2023-03-12T09:55:13;97207.44;;;2.78
72054;BMP280;59918;51.280;7.950;2023-03-12T09:57:39;97216.53;;;2.94
72054;BMP280;59918;51.280;7.950;2023-03-12T10:00:05;97203.03;;;2.94
72054;BMP280;59918;51.280;7.950;2023-03-12T10:02:41;97201.13;;;2.96
72054;BMP280;59918;51.280;7.950;2023-03-12T10:05:10;97203.31;;;3.13
72054;BMP280;59918;51.280;7.950;2023-03-12T10:07:42;97197.00;;;3.31
72054;BMP280;59918;51.280;7.950;2023-03-12T10:10:32;97211.00;;;3.42
72054;BMP280;59918;51.280;7.950;2023-03-12T10:13:15;97199.38;;;3.47
72054;BMP280;59918;51.280;7.950;2023-03-12T10:23:28;97201.13;;;3.61
72054;BMP280;59918;51.280;7.950;2023-03-12T10:25:57;97198.94;;;3.72
72054;BMP280;59918;51.280;7.950;2023-03-12T10:28:33;97212.06;;;3.76
72054;BMP280;59918;51.280;7.950;2023-03-12T10:31:04;97206.22;;;3.75
72054;BMP280;59918;51.280;7.950;2023-03-12T10:33:43;97211.28;;;3.75
72054;BMP280;59918;51.280;7.950;2023-03-12T10:36:12;97212.00;;;3.69
72054;BMP280;59918;51.280;7.950;2023-03-12T10:38:39;97217.88;;;3.70
72054;BMP280;59918;51.280;7.950;2023-03-12T10:41:11;97221.22;;;3.70
72054;BMP280;59918;51.280;7.950;2023-03-12T10:43:37;97217.69;;;3.71
72054;BMP280;59918;51.280;7.950;2023-03-12T10:48:30;97235.69;;;3.84
72054;BMP280;59918;51.280;7.950;2023-03-12T10:51:02;97225.75;;;3.89
72054;BMP280;59918;51.280;7.950;2023-03-12T10:53:35;97227.34;;;3.90
72054;BMP280;59918;51.280;7.950;2023-03-12T10:56:02;97228.03;;;3.98
72054;BMP280;59918;51.280;7.950;2023-03-12T10:58:34;97222.81;;;4.21
72054;BMP280;59918;51.280;7.950;2023-03-12T11:01:01;97223.22;;;4.38
72054;BMP280;59918;51.280;7.950;2023-03-12T11:03:27;97211.03;;;4.48
72054;BMP280;59918;51.280;7.950;2023-03-12T11:05:54;97223.66;;;4.56
72054;BMP280;59918;51.280;7.950;2023-03-12T11:08:26;97219.22;;;4.65
72054;BMP280;59918;51.280;7.950;2023-03-12T11:10:52;97223.78;;;4.69
72054;BMP280;59918;51.280;7.950;2023-03-12T11:15:45;97232.16;;;4.84
72054;BMP280;59918;51.280;7.950;2023-03-12T11:21:11;97224.19;;;4.93
72054;BMP280;59918;51.280;7.950;2023-03-12T11:24:20;97237.38;;;4.97
72054;BMP280;59918;51.280;7.950;2023-03-12T11:26:30;97231.31;;;4.98
72054;BMP280;59918;51.280;7.950;2023-03-12T11:31:36;97226.16;;;5.39
72054;BMP280;59918;51.280;7.950;2023-03-12T11:34:04;97232.47;;;5.70
72054;BMP280;59918;51.280;7.950;2023-03-12T11:39:19;97230.53;;;6.06
72054;BMP280;59918;51.280;7.950;2023-03-12T11:46:56;97222.44;;;6.42
72054;BMP280;59918;51.280;7.950;2023-03-12T11:52:13;97214.72;;;6.29
72054;BMP280;59918;51.280;7.950;2023-03-12T11:57:13;97227.31;;;6.37
72054;BMP280;59918;51.280;7.950;2023-03-12T12:12:45;97218.84;;;6.90
72054;BMP280;59918;51.280;7.950;2023-03-12T12:15:13;97219.03;;;7.01
72054;BMP280;59918;51.280;7.950;2023-03-12T12:33:15;97212.75;;;7.23
72054;BMP280;59918;51.280;7.950;2023-03-12T12:35:44;97192.50;;;7.21
72054;BMP280;59918;51.280;7.950;2023-03-12T12:38:23;97201.94;;;7.21
72054;BMP280;59918;51.280;7.950;2023-03-12T12:40:54;97212.16;;;7.27
72054;BMP280;59918;51.280;7.950;2023-03-12T12:43:30;97212.56;;;7.18
72054;BMP280;59918;51.280;7.950;2023-03-12T12:46:01;97222.97;;;7.16
72054;BMP280;59918;51.280;7.950;2023-03-12T12:48:31;97222.97;;;7.16
72054;BMP280;59918;51.280;7.950;2023-03-12T12:50:58;97227.13;;;7.17
72054;BMP280;59918;51.280;7.950;2023-03-12T12:53:27;97218.47;;;7.25
72054;BMP280;59918;51.280;7.950;2023-03-12T12:55:59;97214.94;;;7.38
72054;BMP280;59918;51.280;7.950;2023-03-12T12:58:37;97221.41;;;7.60
72054;BMP280;59918;51.280;7.950;2023-03-12T13:01:05;97221.38;;;7.73
72054;BMP280;59918;51.280;7.950;2023-03-12T13:03:31;97214.69;;;7.72
72054;BMP280;59918;51.280;7.950;2023-03-12T13:06:00;97205.22;;;7.72
72054;BMP280;59918;51.280;7.950;2023-03-12T13:11:04;97196.34;;;7.88
72054;BMP280;59918;51.280;7.950;2023-03-12T13:13:29;97192.56;;;7.97
72054;BMP280;59918;51.280;7.950;2023-03-12T13:18:38;97194.34;;;7.96
72054;BMP280;59918;51.280;7.950;2023-03-12T13:21:21;97194.34;;;7.96
72054;BMP280;59918;51.280;7.950;2023-03-12T13:23:49;97200.81;;;7.98
72054;BMP280;59918;51.280;7.950;2023-03-12T13:36:32;97196.94;;;7.77
72054;BMP280;59918;51.280;7.950;2023-03-12T13:43:56;97196.94;;;7.77
72054;BMP280;59918;51.280;7.950;2023-03-12T13:46:31;97195.38;;;7.76
72054;BMP280;59918;51.280;7.950;2023-03-12T13:48:58;97184.72;;;7.79
72054;BMP280;59918;51.280;7.950;2023-03-12T13:51:24;97180.59;;;7.84
72054;BMP280;59918;51.280;7.950;2023-03-12T13:53:51;97186.69;;;7.90
72054;BMP280;59918;51.280;7.950;2023-03-12T13:56:18;97182.16;;;7.92
72054;BMP280;59918;51.280;7.950;2023-03-12T14:01:18;97178.31;;;8.20
72054;BMP280;59918;51.280;7.950;2023-03-12T14:03:45;97171.09;;;8.47
72054;BMP280;59918;51.280;7.950;2023-03-12T14:06:12;97161.66;;;8.48
72054;BMP280;59918;51.280;7.950;2023-03-12T14:08:45;97166.41;;;8.44
72054;BMP280;59918;51.280;7.950;2023-03-12T14:13:49;97154.94;;;8.47
72054;BMP280;59918;51.280;7.950;2023-03-12T14:16:29;97171.44;;;8.57
72054;BMP280;59918;51.280;7.950;2023-03-12T14:18:58;97151.63;;;8.71
72054;BMP280;59918;51.280;7.950;2023-03-12T14:21:23;97154.38;;;8.75
72054;BMP280;59918;51.280;7.950;2023-03-12T14:23:55;97153.97;;;8.78
72054;BMP280;59918;51.280;7.950;2023-03-12T14:26:26;97162.06;;;8.75
72054;BMP280;59918;51.280;7.950;2023-03-12T14:29:03;97160.91;;;8.72
72054;BMP280;59918;51.280;7.950;2023-03-12T14:31:31;97163.88;;;8.69
72054;BMP280;59918;51.280;7.950;2023-03-12T14:33:58;97156.25;;;8.62
72054;BMP280;59918;51.280;7.950;2023-03-12T14:36:25;97159.00;;;8.61
72054;BMP280;59918;51.280;7.950;2023-03-12T14:38:57;97150.53;;;8.60
72054;BMP280;59918;51.280;7.950;2023-03-12T14:41:31;97165.16;;;8.53
72054;BMP280;59918;51.280;7.950;2023-03-12T14:44:05;97166.19;;;8.46
72054;BMP280;59918;51.280;7.950;2023-03-12T14:46:30;97152.22;;;8.42
72054;BMP280;59918;51.280;7.950;2023-03-12T14:48:55;97160.28;;;8.45
72054;BMP280;59918;51.280;7.950;2023-03-12T14:51:22;97153.16;;;8.54
72054;BMP280;59918;51.280;7.950;2023-03-12T14:53:47;97147.78;;;8.62
72054;BMP280;59918;51.280;7.950;2023-03-12T14:56:13;97147.94;;;8.67
72054;BMP280;59918;51.280;7.950;2023-03-12T14:58:45;97156.78;;;8.71
72054;BMP280;59918;51.280;7.950;2023-03-12T15:01:12;97160.66;;;8.79
72054;BMP280;59918;51.280;7.950;2023-03-12T15:03:42;97158.84;;;8.86
72054;BMP280;59918;51.280;7.950;2023-03-12T15:06:16;97158.22;;;8.91
72054;BMP280;59918;51.280;7.950;2023-03-12T15:08:42;97151.31;;;8.91
72054;BMP280;59918;51.280;7.950;2023-03-12T15:11:07;97173.97;;;8.94
72054;BMP280;59918;51.280;7.950;2023-03-12T15:13:34;97174.38;;;8.91
72054;BMP280;59918;51.280;7.950;2023-03-12T15:16:01;97177.59;;;8.87
72054;BMP280;59918;51.280;7.950;2023-03-12T15:18:27;97184.47;;;8.86
72054;BMP280;59918;51.280;7.950;2023-03-12T15:20:53;97178.38;;;8.87
72054;BMP280;59918;51.280;7.950;2023-03-12T15:23:20;97171.25;;;8.89
72054;BMP280;59918;51.280;7.950;2023-03-12T15:25:45;97170.47;;;8.89
72054;BMP280;59918;51.280;7.950;2023-03-12T15:30:38;97177.94;;;8.90
72054;BMP280;59918;51.280;7.950;2023-03-12T15:35:42;97170.47;;;8.89
72054;BMP280;59918;51.280;7.950;2023-03-12T15:38:14;97181.50;;;8.89
72054;BMP280;59918;51.280;7.950;2023-03-12T15:40:40;97181.50;;;8.89
72054;BMP280;59918;51.280;7.950;2023-03-12T15:43:05;97174.22;;;8.86
72054;BMP280;59918;51.280;7.950;2023-03-12T15:45:35;97178.97;;;8.83
72054;BMP280;59918;51.280;7.950;2023-03-12T15:48:01;97173.25;;;8.81
72054;BMP280;59918;51.280;7.950;2023-03-12T15:50:29;97170.91;;;8.79
72054;BMP280;59918;51.280;7.950;2023-03-12T15:52:59;97172.91;;;8.77
72054;BMP280;59918;51.280;7.950;2023-03-12T15:55:27;97178.81;;;8.78
72054;BMP280;59918;51.280;7.950;2023-03-12T15:57:53;97175.47;;;8.77